ESGT/THN METAR and TAF weather

Enter ICAO airport designator
Station Type Date Time Source
ESGT METAR 2020/11/25 22:20 UTC NOAA

ESGT 252220Z AUTO 21011KT 1900 R15///// R33///// +DZ OVC004/// 08/07 Q1010


Station Type Date Time Source
ESGT Decoded METAR 2020/11/25 22:20 UTC NOAA

Trollhattan Private , Sweden (ESGT) 58-19N 012-21E
Nov 25, 2020 - 05:20 PM EST / 2020.11.25 2220 UTC
Wind: from the SSW (210 degrees) at 13 MPH (11 KT):0
Visibility: 1 mile(s):0
Sky conditions: overcast
Weather: heavy drizzle
Temperature: 46 F (8 C)
Dew Point: 44 F (7 C)
Relative Humidity: 93%
Pressure (altimeter): 29.83 in. Hg (1010 hPa)
ob: ESGT 252220Z AUTO 21011KT 1900 R15///// R33///// +DZ OVC004/// 08/07 Q1010
cycle: 22

Station Type Date Time Source
ESGT TAF 2016/08/12 05:58 UTC NOAA

TAF ESGT 120430Z 1205/1224 18007KT 9999 FEW030

Example: see airport list